Time;durP1;ratioP1;P1;durP2;ratioP2;P2;SDS_P1;SDS_P2;PMS_P1;PMS_P2;Temp;Humidity;BMP_temperature;BMP_pressure;BME280_temperature;BME280_humidity;BME280_pressure;Samples;Min_cycle;Max_cycle;Signal;HPM_P1;HPM_P2
2021/11/21 00:00:35;;;;;;;24.83;19.90;;;;;;;;;;5035768;28;20703;-61
2021/11/21 00:03:00;;;;;;;27.13;18.93;;;;;;;;;;5036159;28;20232;-62
2021/11/21 00:05:25;;;;;;;22.17;17.77;;;;;;;;;;5035590;28;20237;-61
2021/11/21 00:07:51;;;;;;;25.83;18.57;;;;;;;;;;5036878;28;20218;-61
2021/11/21 00:10:17;;;;;;;26.47;20.13;;;;;;;;;;5036543;28;20256;-62
2021/11/21 00:12:42;;;;;;;23.87;18.87;;;;;;;;;;5035987;28;20279;-62
2021/11/21 00:15:08;;;;;;;29.63;21.00;;;;;;;;;;5036706;28;20461;-62
2021/11/21 00:17:34;;;;;;;23.10;17.37;;;;;;;;;;5035810;28;20310;-62
2021/11/21 00:19:59;;;;;;;24.40;17.57;;;;;;;;;;5036056;28;20458;-62
2021/11/21 00:22:25;;;;;;;27.50;18.43;;;;;;;;;;5035741;28;20217;-62
2021/11/21 00:24:51;;;;;;;22.90;18.27;;;;;;;;;;5035299;28;20248;-62
2021/11/21 00:27:17;;;;;;;25.90;19.20;;;;;;;;;;5036320;28;20426;-62
2021/11/21 00:29:43;;;;;;;24.77;18.30;;;;;;;;;;5036135;28;20457;-62
2021/11/21 00:32:08;;;;;;;27.43;19.53;;;;;;;;;;5036090;28;21188;-61
2021/11/21 00:34:33;;;;;;;27.23;19.63;;;;;;;;;;5036032;28;20301;-61
2021/11/21 00:36:59;;;;;;;23.80;17.63;;;;;;;;;;5035621;28;20328;-61
2021/11/21 00:39:25;;;;;;;27.37;18.80;;;;;;;;;;5035771;28;20645;-61
2021/11/21 00:41:50;;;;;;;26.30;18.97;;;;;;;;;;5034427;28;20250;-62
2021/11/21 00:44:16;;;;;;;24.23;17.20;;;;;;;;;;5035143;28;20919;-62
2021/11/21 00:46:41;;;;;;;23.90;17.37;;;;;;;;;;5035563;28;20228;-62
2021/11/21 00:49:13;;;;;;;20.00;16.20;;;;;;;;;;5035694;28;20222;-62
2021/11/21 00:51:38;;;;;;;23.33;15.23;;;;;;;;;;5034268;28;20292;-61
2021/11/21 00:54:22;;;;;;;23.93;17.17;;;;;;;;;;5035879;28;20451;-62
2021/11/21 00:56:49;;;;;;;23.13;17.50;;;;;;;;;;5035835;28;20268;-62
2021/11/21 00:59:19;;;;;;;22.30;16.43;;;;;;;;;;5036855;28;20938;-61
2021/11/21 01:01:46;;;;;;;23.00;17.00;;;;;;;;;;5039733;28;21219;-61
2021/11/21 01:04:11;;;;;;;22.00;17.67;;;;;;;;;;5038750;28;20460;-62
2021/11/21 01:06:36;;;;;;;20.73;13.63;;;;;;;;;;5039409;28;20475;-61
2021/11/21 01:09:03;;;;;;;20.90;14.97;;;;;;;;;;5039368;28;20223;-62
2021/11/21 01:11:28;;;;;;;20.63;15.37;;;;;;;;;;5039109;28;20225;-62
2021/11/21 01:13:53;;;;;;;19.57;15.80;;;;;;;;;;5039242;28;20569;-62
2021/11/21 01:16:19;;;;;;;18.80;14.73;;;;;;;;;;5038984;28;20214;-61
2021/11/21 01:18:44;;;;;;;21.77;15.50;;;;;;;;;;5038489;28;20218;-62
2021/11/21 01:21:09;;;;;;;21.97;16.27;;;;;;;;;;5039175;28;20256;-62
2021/11/21 01:23:35;;;;;;;24.00;16.53;;;;;;;;;;5038689;28;20220;-61
2021/11/21 01:26:00;;;;;;;22.93;16.20;;;;;;;;;;5038390;28;20222;-62
2021/11/21 01:28:26;;;;;;;21.67;16.03;;;;;;;;;;5038796;28;20644;-61
2021/11/21 01:30:51;;;;;;;20.03;15.03;;;;;;;;;;5038134;28;20217;-61
2021/11/21 01:33:16;;;;;;;22.37;17.13;;;;;;;;;;5037992;28;20741;-62
2021/11/21 01:35:42;;;;;;;20.57;15.87;;;;;;;;;;5038893;28;20304;-61
2021/11/21 01:38:08;;;;;;;24.53;16.43;;;;;;;;;;5039065;28;20241;-62
2021/11/21 01:40:34;;;;;;;21.40;14.70;;;;;;;;;;5037809;28;20435;-61
2021/11/21 01:43:00;;;;;;;26.53;18.70;;;;;;;;;;5038320;28;20224;-62
2021/11/21 01:45:26;;;;;;;21.83;17.00;;;;;;;;;;5038768;28;20427;-61
2021/11/21 01:47:52;;;;;;;21.30;15.60;;;;;;;;;;5038498;28;20460;-62
2021/11/21 01:50:22;;;;;;;22.93;15.53;;;;;;;;;;5038714;28;20320;-61
2021/11/21 01:52:48;;;;;;;25.77;18.80;;;;;;;;;;5037784;28;20228;-62
2021/11/21 01:55:13;;;;;;;20.57;16.40;;;;;;;;;;5038961;28;20759;-61
2021/11/21 01:57:39;;;;;;;19.60;16.37;;;;;;;;;;5036956;28;20563;-62
2021/11/21 02:00:09;;;;;;;20.87;15.93;;;;;;;;;;5038080;28;20228;-62
2021/11/21 02:02:35;;;;;;;20.80;17.23;;;;;;;;;;5038580;28;20218;-62
2021/11/21 02:05:00;;;;;;;21.70;16.97;;;;;;;;;;5038658;28;20435;-62
2021/11/21 02:07:28;;;;;;;20.70;15.63;;;;;;;;;;5038699;28;20213;-61
2021/11/21 02:09:54;;;;;;;19.93;15.90;;;;;;;;;;5037685;28;20621;-62
2021/11/21 02:12:19;;;;;;;19.60;16.30;;;;;;;;;;5038270;28;20442;-61
2021/11/21 02:14:44;;;;;;;20.73;16.37;;;;;;;;;;5037525;28;20228;-62
2021/11/21 02:17:10;;;;;;;20.87;15.80;;;;;;;;;;5038187;28;20660;-61
2021/11/21 02:19:35;;;;;;;21.70;16.57;;;;;;;;;;5038252;28;20210;-61
2021/11/21 02:22:01;;;;;;;19.47;15.47;;;;;;;;;;5038694;28;20218;-62
2021/11/21 02:24:26;;;;;;;20.37;16.50;;;;;;;;;;5038756;28;20210;-61
2021/11/21 02:26:51;;;;;;;18.90;15.43;;;;;;;;;;5037932;28;20267;-61
2021/11/21 02:29:17;;;;;;;23.77;16.10;;;;;;;;;;5037998;28;20639;-61
2021/11/21 02:31:42;;;;;;;17.80;15.27;;;;;;;;;;5037142;28;20249;-62
2021/11/21 02:34:08;;;;;;;22.03;15.73;;;;;;;;;;5037750;28;20206;-61
2021/11/21 02:36:34;;;;;;;26.03;18.27;;;;;;;;;;5037329;28;20283;-61
2021/11/21 02:39:00;;;;;;;18.97;16.27;;;;;;;;;;5037437;28;20214;-61
2021/11/21 02:41:27;;;;;;;22.40;17.00;;;;;;;;;;5036583;28;20563;-62
2021/11/21 02:43:53;;;;;;;20.30;16.07;;;;;;;;;;5037194;28;20464;-61
2021/11/21 02:46:19;;;;;;;21.10;16.03;;;;;;;;;;5037589;28;20535;-62
2021/11/21 02:48:44;;;;;;;20.27;15.60;;;;;;;;;;5036967;28;20835;-60
2021/11/21 02:51:12;;;;;;;20.77;16.53;;;;;;;;;;5037457;28;20299;-61
2021/11/21 02:53:39;;;;;;;21.30;15.70;;;;;;;;;;5037753;28;20224;-62
2021/11/21 02:56:12;;;;;;;21.80;15.93;;;;;;;;;;5037495;28;20423;-61
2021/11/21 02:58:38;;;;;;;19.07;15.77;;;;;;;;;;5036673;28;20468;-61
2021/11/21 03:01:08;;;;;;;25.10;16.17;;;;;;;;;;5037311;28;20451;-61
2021/11/21 03:03:34;;;;;;;22.93;17.77;;;;;;;;;;5037238;28;20434;-62
2021/11/21 03:05:59;;;;;;;21.73;16.83;;;;;;;;;;5037463;28;20437;-61
2021/11/21 03:08:25;;;;;;;25.40;18.33;;;;;;;;;;5037270;28;20618;-61
2021/11/21 03:10:52;;;;;;;21.37;17.53;;;;;;;;;;5036212;28;20238;-62
2021/11/21 03:13:18;;;;;;;25.70;18.80;;;;;;;;;;5036832;28;20582;-61
2021/11/21 03:15:44;;;;;;;22.70;17.20;;;;;;;;;;5036222;28;20974;-61
2021/11/21 03:18:09;;;;;;;19.33;16.57;;;;;;;;;;5037272;28;20238;-61
2021/11/21 03:20:35;;;;;;;20.30;15.93;;;;;;;;;;5037437;28;20291;-61
2021/11/21 03:23:03;;;;;;;23.27;17.40;;;;;;;;;;5036699;28;20224;-61
2021/11/21 03:25:28;;;;;;;26.43;18.97;;;;;;;;;;5037973;28;20742;-62
2021/11/21 03:27:54;;;;;;;24.80;17.80;;;;;;;;;;5036651;28;20474;-61
2021/11/21 03:30:21;;;;;;;28.17;20.70;;;;;;;;;;5036838;28;20246;-61
2021/11/21 03:32:47;;;;;;;24.30;18.50;;;;;;;;;;5036388;28;20629;-61
2021/11/21 03:35:13;;;;;;;23.50;18.47;;;;;;;;;;5037507;28;20562;-61
2021/11/21 03:37:40;;;;;;;22.40;19.30;;;;;;;;;;5036195;28;20484;-61
2021/11/21 03:40:10;;;;;;;30.67;19.47;;;;;;;;;;5037378;28;20435;-61
2021/11/21 03:42:35;;;;;;;26.30;18.37;;;;;;;;;;5036849;28;20797;-61
2021/11/21 03:45:01;;;;;;;25.03;19.07;;;;;;;;;;5037156;28;20453;-61
2021/11/21 03:47:26;;;;;;;26.27;18.53;;;;;;;;;;5037523;28;20310;-62
2021/11/21 03:49:52;;;;;;;27.33;18.87;;;;;;;;;;5036921;28;20213;-61
2021/11/21 03:52:17;;;;;;;28.53;19.50;;;;;;;;;;5037062;28;20213;-60
2021/11/21 03:54:43;;;;;;;24.87;18.20;;;;;;;;;;5036411;28;20273;-62
2021/11/21 03:57:08;;;;;;;26.30;19.57;;;;;;;;;;5036569;28;20649;-62
2021/11/21 03:59:34;;;;;;;29.40;18.97;;;;;;;;;;5036638;28;20217;-61
2021/11/21 04:01:59;;;;;;;26.93;20.27;;;;;;;;;;5036341;28;20216;-62
2021/11/21 04:04:26;;;;;;;27.00;20.00;;;;;;;;;;5036007;28;20242;-62
2021/11/21 04:06:51;;;;;;;28.63;19.87;;;;;;;;;;5035096;28;20247;-62
2021/11/21 04:09:17;;;;;;;27.27;19.57;;;;;;;;;;5036115;28;20824;-61
2021/11/21 04:11:42;;;;;;;26.30;19.17;;;;;;;;;;5035207;28;20227;-62
2021/11/21 04:14:08;;;;;;;29.60;20.40;;;;;;;;;;5035892;28;20543;-61
2021/11/21 04:16:33;;;;;;;31.50;21.50;;;;;;;;;;5036610;28;20217;-61
2021/11/21 04:18:58;;;;;;;26.20;19.80;;;;;;;;;;5036028;28;20317;-61
2021/11/21 04:21:24;;;;;;;29.73;19.93;;;;;;;;;;5036597;28;20217;-60
2021/11/21 04:23:49;;;;;;;27.70;20.13;;;;;;;;;;5035050;28;20257;-62
2021/11/21 04:26:15;;;;;;;28.60;20.63;;;;;;;;;;5035895;28;20293;-62
2021/11/21 04:28:41;;;;;;;29.43;21.37;;;;;;;;;;5036673;28;20571;-62
2021/11/21 04:31:06;;;;;;;26.27;19.60;;;;;;;;;;5036473;28;20434;-61
2021/11/21 04:33:32;;;;;;;26.03;18.63;;;;;;;;;;5035559;28;20650;-62
2021/11/21 04:35:57;;;;;;;25.93;19.70;;;;;;;;;;5036091;28;20236;-61
2021/11/21 04:38:24;;;;;;;28.33;19.97;;;;;;;;;;5036409;28;20662;-61
2021/11/21 04:40:51;;;;;;;26.83;19.47;;;;;;;;;;5035986;28;20233;-61
2021/11/21 04:43:17;;;;;;;26.87;19.40;;;;;;;;;;5036366;28;20537;-62
2021/11/21 04:45:43;;;;;;;27.80;19.40;;;;;;;;;;5036006;28;20603;-62
2021/11/21 04:48:08;;;;;;;24.40;18.20;;;;;;;;;;5035045;28;20942;-61
2021/11/21 04:50:34;;;;;;;26.93;20.30;;;;;;;;;;5035531;28;20221;-61
2021/11/21 04:52:59;;;;;;;28.97;20.37;;;;;;;;;;5035807;28;20222;-61
2021/11/21 04:55:25;;;;;;;29.37;20.90;;;;;;;;;;5036956;28;20221;-61
2021/11/21 04:57:50;;;;;;;27.70;21.40;;;;;;;;;;5035883;28;20675;-61
2021/11/21 05:00:18;;;;;;;31.80;22.27;;;;;;;;;;5036231;28;20306;-61
2021/11/21 05:02:46;;;;;;;28.57;20.27;;;;;;;;;;5036330;28;20292;-61
2021/11/21 05:05:11;;;;;;;27.37;19.60;;;;;;;;;;5036100;28;20433;-61
2021/11/21 05:07:37;;;;;;;32.63;21.40;;;;;;;;;;5036127;28;20429;-61
2021/11/21 05:10:06;;;;;;;28.50;20.70;;;;;;;;;;5035736;28;20294;-61
2021/11/21 05:12:32;;;;;;;30.70;21.10;;;;;;;;;;5036504;28;20652;-62
2021/11/21 05:14:59;;;;;;;27.07;20.50;;;;;;;;;;5034924;28;20590;-61
2021/11/21 05:17:25;;;;;;;27.70;20.30;;;;;;;;;;5036271;28;20232;-61
2021/11/21 05:19:51;;;;;;;30.33;21.00;;;;;;;;;;5034948;28;20436;-60
2021/11/21 05:22:16;;;;;;;28.13;19.40;;;;;;;;;;5036172;28;20426;-62
2021/11/21 05:24:42;;;;;;;27.73;20.60;;;;;;;;;;5036690;28;20212;-61
2021/11/21 05:27:07;;;;;;;29.33;20.90;;;;;;;;;;5036479;28;20225;-62
2021/11/21 05:29:32;;;;;;;31.50;20.50;;;;;;;;;;5036148;28;20205;-61
2021/11/21 05:31:58;;;;;;;27.47;19.87;;;;;;;;;;5036020;28;20669;-61
2021/11/21 05:34:23;;;;;;;28.70;19.57;;;;;;;;;;5036858;28;20209;-61
2021/11/21 05:36:48;;;;;;;29.40;20.60;;;;;;;;;;5036149;28;20251;-62
2021/11/21 05:39:13;;;;;;;31.77;21.43;;;;;;;;;;5036262;28;20216;-62
2021/11/21 05:41:39;;;;;;;26.50;19.53;;;;;;;;;;5036589;28;20235;-61
2021/11/21 05:44:05;;;;;;;29.53;19.30;;;;;;;;;;5036310;28;20313;-61
2021/11/21 05:46:31;;;;;;;28.87;20.83;;;;;;;;;;5039566;28;20220;-62
2021/11/21 05:48:56;;;;;;;27.20;19.20;;;;;;;;;;5039943;28;20462;-62
2021/11/21 05:51:21;;;;;;;27.27;20.37;;;;;;;;;;5039639;28;20218;-61
2021/11/21 05:53:47;;;;;;;26.67;19.93;;;;;;;;;;5039479;28;20562;-62
2021/11/21 05:56:12;;;;;;;24.30;18.17;;;;;;;;;;5039825;28;20220;-62
2021/11/21 05:58:38;;;;;;;28.57;19.00;;;;;;;;;;5039654;28;20276;-61
2021/11/21 06:01:03;;;;;;;30.23;18.73;;;;;;;;;;5038982;28;20233;-61
2021/11/21 06:03:28;;;;;;;30.10;20.17;;;;;;;;;;5039157;28;20213;-61
2021/11/21 06:05:54;;;;;;;29.03;21.50;;;;;;;;;;5038813;28;20237;-61
2021/11/21 06:08:19;;;;;;;28.30;20.13;;;;;;;;;;5039663;28;20227;-61
2021/11/21 06:10:45;;;;;;;25.43;18.00;;;;;;;;;;5039198;28;20238;-62
2021/11/21 06:13:11;;;;;;;25.30;18.80;;;;;;;;;;5038786;28;20214;-62
2021/11/21 06:15:37;;;;;;;26.10;18.50;;;;;;;;;;5039807;28;20459;-61
2021/11/21 06:18:02;;;;;;;28.87;18.63;;;;;;;;;;5038733;28;20523;-61
2021/11/21 06:20:28;;;;;;;22.20;16.90;;;;;;;;;;5039640;28;20224;-61
2021/11/21 06:22:53;;;;;;;26.23;18.83;;;;;;;;;;5039348;28;20257;-62
2021/11/21 06:25:19;;;;;;;27.30;18.10;;;;;;;;;;5038885;28;20277;-61
2021/11/21 06:27:44;;;;;;;22.90;17.97;;;;;;;;;;5038723;28;20300;-61
2021/11/21 06:30:10;;;;;;;25.23;18.73;;;;;;;;;;5038589;28;20686;-61
2021/11/21 06:32:35;;;;;;;22.87;15.90;;;;;;;;;;5038887;28;20221;-62
2021/11/21 06:35:00;;;;;;;26.97;15.03;;;;;;;;;;5038791;28;20221;-61
2021/11/21 06:37:26;;;;;;;23.60;15.90;;;;;;;;;;5038694;28;20290;-62
2021/11/21 06:39:51;;;;;;;25.73;17.70;;;;;;;;;;5038246;28;20218;-61
2021/11/21 06:42:17;;;;;;;25.40;17.10;;;;;;;;;;5038325;28;20215;-61
2021/11/21 06:44:43;;;;;;;24.97;17.60;;;;;;;;;;5038837;28;20219;-61
2021/11/21 06:47:09;;;;;;;26.57;16.97;;;;;;;;;;5038537;28;20216;-61
2021/11/21 06:49:34;;;;;;;22.40;16.77;;;;;;;;;;5038728;28;20990;-61
2021/11/21 06:52:00;;;;;;;30.90;20.03;;;;;;;;;;5035536;28;20248;-64
2021/11/21 06:54:26;;;;;;;28.70;20.17;;;;;;;;;;5037750;28;20232;-65
2021/11/21 06:56:51;;;;;;;22.03;16.03;;;;;;;;;;5033801;28;20387;-60
2021/11/21 06:59:16;;;;;;;21.00;14.73;;;;;;;;;;5048775;28;20241;-60
2021/11/21 07:01:42;;;;;;;25.33;18.33;;;;;;;;;;5047924;28;20225;-61
2021/11/21 07:04:08;;;;;;;24.20;17.80;;;;;;;;;;5043161;28;20235;-60
2021/11/21 07:06:39;;;;;;;20.80;15.70;;;;;;;;;;5046437;28;20223;-60
2021/11/21 07:09:07;;;;;;;25.77;16.43;;;;;;;;;;5047930;28;20906;-61
2021/11/21 07:11:34;;;;;;;22.77;16.53;;;;;;;;;;5038445;28;20569;-61
2021/11/21 07:13:59;;;;;;;23.50;16.27;;;;;;;;;;5043632;28;20456;-59
2021/11/21 07:16:25;;;;;;;25.23;16.77;;;;;;;;;;5047089;28;21009;-62
2021/11/21 07:18:51;;;;;;;24.30;15.97;;;;;;;;;;5050714;28;20241;-61
2021/11/21 07:21:18;;;;;;;23.00;14.80;;;;;;;;;;5048694;28;20226;-60
2021/11/21 07:23:44;;;;;;;21.80;15.70;;;;;;;;;;5044703;28;20498;-60
2021/11/21 07:26:09;;;;;;;24.00;16.00;;;;;;;;;;5043522;28;20237;-61
2021/11/21 07:28:35;;;;;;;20.30;14.13;;;;;;;;;;5048821;28;20489;-61
2021/11/21 07:31:00;;;;;;;22.53;16.73;;;;;;;;;;5047941;28;20228;-59
2021/11/21 07:33:25;;;;;;;23.43;15.57;;;;;;;;;;5043794;28;20375;-60
2021/11/21 07:35:53;;;;;;;26.50;16.57;;;;;;;;;;5046393;28;20644;-61
2021/11/21 07:38:19;;;;;;;24.33;14.00;;;;;;;;;;5050254;28;20236;-60
2021/11/21 07:40:45;;;;;;;19.20;14.47;;;;;;;;;;5047165;28;20436;-60
2021/11/21 07:43:10;;;;;;;25.17;16.50;;;;;;;;;;5042814;28;20747;-60
2021/11/21 07:45:35;;;;;;;21.70;14.43;;;;;;;;;;5046159;28;20616;-60
2021/11/21 07:48:01;;;;;;;20.80;15.37;;;;;;;;;;5050134;28;20222;-60
2021/11/21 07:50:26;;;;;;;23.90;17.17;;;;;;;;;;5047504;28;20218;-60
2021/11/21 07:52:51;;;;;;;25.10;16.60;;;;;;;;;;5040472;28;20233;-60
2021/11/21 07:55:17;;;;;;;23.63;15.10;;;;;;;;;;5049833;28;20226;-60
2021/11/21 07:57:42;;;;;;;22.10;14.40;;;;;;;;;;5049767;28;20329;-60
2021/11/21 08:00:12;;;;;;;23.17;15.30;;;;;;;;;;5042006;28;20222;-60
2021/11/21 08:02:37;;;;;;;26.90;16.90;;;;;;;;;;5044726;28;20309;-60
2021/11/21 08:05:04;;;;;;;22.33;15.63;;;;;;;;;;5050044;28;20498;-60
2021/11/21 08:07:29;;;;;;;22.47;16.20;;;;;;;;;;5047758;28;20253;-60
2021/11/21 08:09:55;;;;;;;25.53;16.80;;;;;;;;;;5041980;28;20870;-60
2021/11/21 08:12:20;;;;;;;25.57;16.27;;;;;;;;;;5045528;28;20224;-60
2021/11/21 08:14:45;;;;;;;24.27;16.50;;;;;;;;;;5050786;28;20221;-60
2021/11/21 08:17:11;;;;;;;22.07;15.20;;;;;;;;;;5045756;28;20542;-60
2021/11/21 08:19:37;;;;;;;23.30;15.57;;;;;;;;;;5042963;28;20688;-60
2021/11/21 08:22:03;;;;;;;24.47;15.90;;;;;;;;;;5046999;28;20323;-60
2021/11/21 08:24:28;;;;;;;25.53;15.30;;;;;;;;;;5049845;28;20458;-59
2021/11/21 08:26:54;;;;;;;23.60;15.77;;;;;;;;;;5030253;28;20247;-60
2021/11/21 08:29:19;;;;;;;22.50;15.87;;;;;;;;;;5044462;28;20302;-60
2021/11/21 08:31:45;;;;;;;25.73;15.77;;;;;;;;;;5044567;28;20238;-60
2021/11/21 08:34:10;;;;;;;26.43;15.87;;;;;;;;;;5041136;28;20222;-61
2021/11/21 08:36:35;;;;;;;25.57;17.07;;;;;;;;;;5048418;28;20276;-60
2021/11/21 08:39:02;;;;;;;21.63;15.63;;;;;;;;;;5048360;28;20547;-60
2021/11/21 08:41:27;;;;;;;22.57;16.27;;;;;;;;;;5043015;28;20221;-60
2021/11/21 08:43:53;;;;;;;22.07;14.53;;;;;;;;;;5042291;28;20449;-60
2021/11/21 08:46:18;;;;;;;25.03;16.37;;;;;;;;;;5047941;28;20282;-60
2021/11/21 08:48:45;;;;;;;25.43;15.50;;;;;;;;;;5048531;28;20244;-59
2021/11/21 08:51:10;;;;;;;27.47;17.10;;;;;;;;;;5042207;28;20328;-60
2021/11/21 08:53:36;;;;;;;25.93;17.43;;;;;;;;;;5042184;28;20490;-60
2021/11/21 08:56:01;;;;;;;25.60;15.37;;;;;;;;;;5048759;28;20226;-59
2021/11/21 08:58:26;;;;;;;25.30;16.67;;;;;;;;;;5028769;28;20253;-61
2021/11/21 09:00:52;;;;;;;25.73;15.47;;;;;;;;;;5049139;28;20226;-60
2021/11/21 09:03:18;;;;;;;25.43;16.30;;;;;;;;;;5041662;28;20221;-60
2021/11/21 09:05:43;;;;;;;20.23;13.63;;;;;;;;;;5042687;28;20234;-60
2021/11/21 09:08:09;;;;;;;24.27;15.77;;;;;;;;;;5048367;28;20220;-61
2021/11/21 09:10:34;;;;;;;26.13;16.20;;;;;;;;;;5047119;28;20480;-60
2021/11/21 09:13:01;;;;;;;26.90;17.20;;;;;;;;;;5040470;28;20309;-61
2021/11/21 09:15:26;;;;;;;21.80;15.43;;;;;;;;;;5042205;28;20227;-60
2021/11/21 09:17:53;;;;;;;22.50;15.50;;;;;;;;;;5049003;28;20511;-60
2021/11/21 09:20:22;;;;;;;22.87;16.47;;;;;;;;;;5048713;28;20311;-60
2021/11/21 09:22:48;;;;;;;24.10;16.20;;;;;;;;;;5044379;28;20436;-60
2021/11/21 09:25:14;;;;;;;22.73;14.20;;;;;;;;;;5046374;28;20543;-60
2021/11/21 09:27:39;;;;;;;19.83;15.27;;;;;;;;;;5052035;28;20534;-61
2021/11/21 09:30:07;;;;;;;20.13;14.70;;;;;;;;;;5051929;28;20283;-61
2021/11/21 09:32:32;;;;;;;23.37;14.00;;;;;;;;;;5045818;28;20229;-59
2021/11/21 09:34:58;;;;;;;20.73;15.73;;;;;;;;;;5046982;28;20771;-61
2021/11/21 09:37:23;;;;;;;18.23;14.97;;;;;;;;;;5052565;28;20243;-61
2021/11/21 09:39:48;;;;;;;22.03;15.73;;;;;;;;;;5052549;28;20233;-61
2021/11/21 09:42:15;;;;;;;21.87;15.70;;;;;;;;;;5045252;28;20323;-61
2021/11/21 09:44:40;;;;;;;20.77;13.20;;;;;;;;;;5046667;28;20232;-60
2021/11/21 09:47:05;;;;;;;21.73;14.50;;;;;;;;;;5052528;28;20801;-61
2021/11/21 09:49:31;;;;;;;19.63;15.83;;;;;;;;;;5051963;28;20234;-60
2021/11/21 09:51:57;;;;;;;21.43;14.63;;;;;;;;;;5044872;28;20363;-60
2021/11/21 09:54:27;;;;;;;24.73;15.50;;;;;;;;;;5045516;28;20618;-62
2021/11/21 09:56:52;;;;;;;21.40;16.40;;;;;;;;;;5033662;28;20223;-61
2021/11/21 09:59:58;;;;;;;22.10;15.27;;;;;;;;;;5045618;28;20448;-60
2021/11/21 10:02:31;;;;;;;22.80;16.53;;;;;;;;;;5045344;28;20229;-61
2021/11/21 10:04:58;;;;;;;21.27;15.20;;;;;;;;;;5051962;28;20460;-61
2021/11/21 10:07:28;;;;;;;27.73;15.53;;;;;;;;;;5052119;28;20444;-60
2021/11/21 10:09:55;;;;;;;20.30;14.67;;;;;;;;;;5033221;28;20528;-60
2021/11/21 10:12:23;;;;;;;20.40;15.40;;;;;;;;;;5045351;28;20474;-61
2021/11/21 10:14:56;;;;;;;24.27;16.93;;;;;;;;;;5051214;28;20475;-61
2021/11/21 10:17:22;;;;;;;27.20;19.23;;;;;;;;;;5052320;28;20472;-60
2021/11/21 10:20:21;;;;;;;23.93;17.57;;;;;;;;;;5047360;28;20464;-60
2021/11/21 10:23:05;;;;;;;23.13;15.90;;;;;;;;;;5044938;28;20429;-60
2021/11/21 10:25:34;;;;;;;26.83;16.63;;;;;;;;;;5044965;28;20839;-61
2021/11/21 10:28:11;;;;;;;22.77;15.97;;;;;;;;;;5048959;28;20433;-61
2021/11/21 10:30:57;;;;;;;24.53;17.60;;;;;;;;;;5051881;28;20487;-60
2021/11/21 10:33:27;;;;;;;23.90;16.83;;;;;;;;;;5051910;28;20444;-60
2021/11/21 10:36:01;;;;;;;24.83;18.80;;;;;;;;;;5045611;28;20723;-60
2021/11/21 10:38:36;;;;;;;22.47;16.90;;;;;;;;;;5044971;28;20503;-60
2021/11/21 10:41:09;;;;;;;19.50;15.63;;;;;;;;;;5048590;28;20430;-59
2021/11/21 10:44:07;;;;;;;19.40;14.97;;;;;;;;;;5052055;28;20464;-61
2021/11/21 10:46:42;;;;;;;24.87;15.37;;;;;;;;;;5050818;28;20519;-59
2021/11/21 10:49:30;;;;;;;22.50;15.80;;;;;;;;;;5047189;28;20462;-60
2021/11/21 10:51:58;;;;;;;23.17;16.23;;;;;;;;;;5043913;28;20450;-60
2021/11/21 10:54:27;;;;;;;23.10;16.60;;;;;;;;;;5031567;28;20505;-60
2021/11/21 10:56:54;;;;;;;23.00;16.53;;;;;;;;;;5050722;28;20441;-60
2021/11/21 10:59:51;;;;;;;20.30;15.47;;;;;;;;;;5050783;28;20474;-61
2021/11/21 11:02:26;;;;;;;20.83;16.70;;;;;;;;;;5044566;28;20438;-60
2021/11/21 11:05:08;;;;;;;21.47;16.07;;;;;;;;;;5051586;28;20798;-60
2021/11/21 11:08:15;;;;;;;23.73;16.87;;;;;;;;;;5051006;28;20433;-60
2021/11/21 11:10:40;;;;;;;20.13;14.13;;;;;;;;;;4995827;28;20454;-60
2021/11/21 11:13:08;;;;;;;18.70;13.87;;;;;;;;;;5036028;28;20443;-60
2021/11/21 11:15:39;;;;;;;15.70;13.00;;;;;;;;;;5043450;28;20601;-60
2021/11/21 11:18:06;;;;;;;20.20;15.67;;;;;;;;;;5049821;28;20441;-61
2021/11/21 11:20:40;;;;;;;20.27;14.30;;;;;;;;;;5050367;28;20486;-60
2021/11/21 11:23:05;;;;;;;16.47;13.27;;;;;;;;;;5031664;28;20444;-60
2021/11/21 11:25:32;;;;;;;20.70;14.70;;;;;;;;;;5043570;28;20462;-61
2021/11/21 11:28:20;;;;;;;19.03;13.90;;;;;;;;;;5049953;28;20719;-60
2021/11/21 11:30:47;;;;;;;16.37;12.80;;;;;;;;;;5049976;28;20763;-61
2021/11/21 11:33:22;;;;;;;15.60;13.10;;;;;;;;;;5046529;28;20434;-61
2021/11/21 11:35:55;;;;;;;20.03;14.80;;;;;;;;;;5043576;28;20462;-60
2021/11/21 11:38:26;;;;;;;21.20;15.23;;;;;;;;;;5045116;28;20463;-61
2021/11/21 11:40:55;;;;;;;18.40;14.30;;;;;;;;;;5050049;28;20481;-60
2021/11/21 11:43:23;;;;;;;16.90;12.47;;;;;;;;;;5048071;28;20470;-60
2021/11/21 11:46:13;;;;;;;18.70;15.03;;;;;;;;;;5043237;28;20448;-61
2021/11/21 11:48:44;;;;;;;19.93;15.30;;;;;;;;;;5039665;28;20469;-61
2021/11/21 11:51:17;;;;;;;18.87;14.33;;;;;;;;;;5046130;28;20930;-61
2021/11/21 11:53:44;;;;;;;19.23;14.63;;;;;;;;;;5052866;28;20426;-61
2021/11/21 11:56:10;;;;;;;17.80;13.77;;;;;;;;;;5029400;28;20538;-61
2021/11/21 11:58:49;;;;;;;14.60;10.53;;;;;;;;;;5043133;28;20867;-61
2021/11/21 12:01:40;;;;;;;16.00;12.20;;;;;;;;;;5035060;28;20219;-60
2021/11/21 12:04:28;;;;;;;18.93;12.93;;;;;;;;;;5042614;28;20457;-61
2021/11/21 12:06:56;;;;;;;16.83;13.67;;;;;;;;;;5041747;28;20457;-60
2021/11/21 12:09:31;;;;;;;21.97;13.97;;;;;;;;;;5047996;28;20965;-60
2021/11/21 12:11:58;;;;;;;19.70;13.83;;;;;;;;;;5048583;28;20532;-60
2021/11/21 12:14:41;;;;;;;15.30;12.00;;;;;;;;;;5045030;28;20462;-61
2021/11/21 12:17:16;;;;;;;16.53;12.70;;;;;;;;;;5041354;28;20434;-61
2021/11/21 12:19:42;;;;;;;19.77;14.80;;;;;;;;;;5042692;28;20459;-60
2021/11/21 12:22:27;;;;;;;21.07;13.97;;;;;;;;;;5048450;28;20452;-60
2021/11/21 12:24:55;;;;;;;17.57;13.50;;;;;;;;;;5048351;28;20504;-60
2021/11/21 12:27:26;;;;;;;16.60;12.93;;;;;;;;;;5043827;28;20536;-61
2021/11/21 12:30:30;;;;;;;16.63;13.50;;;;;;;;;;5041106;28;20486;-61
2021/11/21 12:32:58;;;;;;;16.63;13.47;;;;;;;;;;5037171;28;20802;-61
2021/11/21 12:35:27;;;;;;;16.70;12.70;;;;;;;;;;5046755;28;20755;-60
2021/11/21 12:37:54;;;;;;;15.10;12.60;;;;;;;;;;5047444;28;20562;-60
2021/11/21 12:40:27;;;;;;;14.70;12.13;;;;;;;;;;5041885;28;20598;-60
2021/11/21 12:42:58;;;;;;;15.63;12.23;;;;;;;;;;5040321;28;20455;-61
2021/11/21 12:45:33;;;;;;;17.80;12.43;;;;;;;;;;5044694;28;20888;-61
2021/11/21 12:48:00;;;;;;;16.87;12.77;;;;;;;;;;5047897;28;20902;-60
2021/11/21 12:50:30;;;;;;;17.63;11.80;;;;;;;;;;5044399;28;20982;-60
2021/11/21 12:53:21;;;;;;;16.07;12.53;;;;;;;;;;5040611;28;20837;-60
2021/11/21 12:55:57;;;;;;;17.00;12.90;;;;;;;;;;5040560;28;20444;-60
2021/11/21 12:58:25;;;;;;;13.77;10.60;;;;;;;;;;5042888;28;20458;-61
2021/11/21 13:00:53;;;;;;;15.70;11.53;;;;;;;;;;5050596;28;20525;-61
2021/11/21 13:03:23;;;;;;;14.50;9.80;;;;;;;;;;5042449;28;20735;-61
2021/11/21 13:05:57;;;;;;;13.47;10.07;;;;;;;;;;5048008;28;20541;-61
2021/11/21 13:08:32;;;;;;;18.30;11.57;;;;;;;;;;5047353;28;20438;-60
2021/11/21 13:11:00;;;;;;;17.33;11.20;;;;;;;;;;5042393;28;20475;-61
2021/11/21 13:13:28;;;;;;;15.70;11.80;;;;;;;;;;5040781;28;20454;-61
2021/11/21 13:15:54;;;;;;;13.07;10.10;;;;;;;;;;5046191;28;20527;-61
2021/11/21 13:18:25;;;;;;;15.50;11.27;;;;;;;;;;5047217;28;20478;-60
2021/11/21 13:21:01;;;;;;;12.90;10.07;;;;;;;;;;5043773;28;20498;-61
2021/11/21 13:23:27;;;;;;;12.73;10.33;;;;;;;;;;5041083;28;20810;-61
2021/11/21 13:25:52;;;;;;;17.47;11.50;;;;;;;;;;5043313;28;20527;-61
2021/11/21 13:28:40;;;;;;;12.73;10.47;;;;;;;;;;5046742;28;20346;-60
2021/11/21 13:31:10;;;;;;;11.50;10.07;;;;;;;;;;5046872;28;20303;-61
2021/11/21 13:33:41;;;;;;;24.00;12.70;;;;;;;;;;5027012;28;20479;-61
2021/11/21 13:36:27;;;;;;;14.37;11.07;;;;;;;;;;5040717;28;20782;-60
2021/11/21 13:38:59;;;;;;;14.23;10.30;;;;;;;;;;5044497;28;20461;-61
2021/11/21 13:41:25;;;;;;;16.27;11.37;;;;;;;;;;5046644;28;20465;-61
2021/11/21 13:43:52;;;;;;;16.17;10.77;;;;;;;;;;5044288;28;20916;-61
2021/11/21 13:46:30;;;;;;;15.30;11.13;;;;;;;;;;5039753;28;20225;-61
2021/11/21 13:48:56;;;;;;;20.07;13.70;;;;;;;;;;5042647;28;20928;-61
2021/11/21 13:51:30;;;;;;;15.80;10.90;;;;;;;;;;5046909;28;20441;-61
2021/11/21 13:53:57;;;;;;;16.53;10.90;;;;;;;;;;5035366;28;20279;-62
2021/11/21 13:56:22;;;;;;;13.00;10.33;;;;;;;;;;5029748;28;20775;-61
2021/11/21 13:58:49;;;;;;;13.00;9.67;;;;;;;;;;5038619;28;20479;-61
2021/11/21 14:01:19;;;;;;;14.50;10.90;;;;;;;;;;5050615;28;20573;-61
2021/11/21 14:03:48;;;;;;;18.83;9.07;;;;;;;;;;5040039;28;20420;-61
2021/11/21 14:06:17;;;;;;;13.97;9.30;;;;;;;;;;5046055;28;20940;-60
2021/11/21 14:08:51;;;;;;;16.67;10.73;;;;;;;;;;5051310;28;20453;-61
2021/11/21 14:11:18;;;;;;;10.83;7.40;;;;;;;;;;5047104;28;20591;-61
2021/11/21 14:13:46;;;;;;;10.33;6.70;;;;;;;;;;5043343;28;20444;-60
2021/11/21 14:16:15;;;;;;;13.00;8.63;;;;;;;;;;5046733;28;20870;-59
2021/11/21 14:18:45;;;;;;;11.67;6.70;;;;;;;;;;5050396;28;20523;-61
2021/11/21 14:21:13;;;;;;;11.70;6.90;;;;;;;;;;5047759;28;20445;-60
2021/11/21 14:23:39;;;;;;;10.80;6.23;;;;;;;;;;5042143;28;21028;-60